Time,TemperatureF,DewpointF,PressureIn,WindDirection,WindDirectionDegrees,WindSpeedMPH,WindSpeedGustMPH,Humidity,HourlyPrecipIn,Conditions,Clouds,dailyrainin,SoftwareType,DateUTC
2013-04-10 00:00:00,49.0,41.4,29.92,ENE,67,0.0,10.0,75,0.00,,,0.05,Wunderground v.1.15,2013-04-10 04:00:00,
2013-04-10 00:05:00,48.9,41.3,29.91,ENE,67,0.0,10.0,75,0.00,,,0.00,Wunderground v.1.15,2013-04-10 04:05:00,
2013-04-10 00:10:00,48.8,41.2,29.91,ENE,67,0.0,10.0,75,0.00,,,0.00,Wunderground v.1.15,2013-04-10 04:10:00,
2013-04-10 00:15:00,48.8,41.2,29.90,ENE,67,0.0,10.0,75,0.00,,,0.00,Wunderground v.1.15,2013-04-10 04:15:00,
2013-04-10 00:20:00,48.8,41.2,29.91,ENE,67,0.0,10.0,75,0.00,,,0.00,Wunderground v.1.15,2013-04-10 04:20:00,
2013-04-10 00:30:00,48.8,41.2,29.90,ENE,67,0.0,10.0,75,0.00,,,0.00,Wunderground v.1.15,2013-04-10 04:30:00,
2013-04-10 00:35:00,48.9,41.3,29.90,ENE,67,0.0,10.0,75,0.00,,,0.00,Wunderground v.1.15,2013-04-10 04:35:00,
2013-04-10 00:45:00,48.9,41.3,29.89,ENE,67,0.0,10.0,75,0.00,,,0.00,Wunderground v.1.15,2013-04-10 04:45:00,
2013-04-10 00:55:00,48.8,41.9,29.89,ENE,67,0.0,10.0,77,0.00,,,0.00,Wunderground v.1.15,2013-04-10 04:55:00,
2013-04-10 01:05:00,48.7,42.5,29.90,ENE,67,0.0,10.0,79,0.00,,,0.00,Wunderground v.1.15,2013-04-10 05:05:00,
2013-04-10 10:05:00,47.4,46.9,29.92,NE,44,0.0,10.0,98,0.00,,,0.18,Wunderground v.1.15,2013-04-10 14:05:00,
2013-04-10 10:15:00,47.7,46.9,29.92,NE,44,0.0,10.0,97,0.00,,,0.18,Wunderground v.1.15,2013-04-10 14:15:00,
2013-04-10 10:25:00,47.9,47.1,29.93,NE,44,0.0,10.0,97,0.00,,,0.18,Wunderground v.1.15,2013-04-10 14:25:00,
2013-04-10 10:35:00,48.0,47.2,29.93,NE,44,0.0,10.0,97,0.00,,,0.18,Wunderground v.1.15,2013-04-10 14:35:00,
2013-04-10 10:40:00,48.2,47.4,29.93,NE,44,0.0,10.0,97,0.00,,,0.18,Wunderground v.1.15,2013-04-10 14:40:00,
2013-04-10 10:50:00,48.8,48.0,29.93,NE,44,0.0,10.0,97,0.00,,,0.18,Wunderground v.1.15,2013-04-10 14:50:00,
2013-04-10 11:00:00,48.9,48.1,29.93,NE,45,1.0,1.0,97,0.00,,,0.18,Wunderground v.1.15,2013-04-10 15:00:00,
2013-04-10 11:15:00,50.6,49.8,29.93,NNE,33,0.0,10.0,97,0.00,,,0.18,Wunderground v.1.15,2013-04-10 15:15:00,
2013-04-10 11:25:00,51.1,49.7,29.93,ENE,75,1.0,10.0,95,0.00,,,0.18,Wunderground v.1.15,2013-04-10 15:25:00,
2013-04-10 11:35:00,52.7,50.7,29.92,NE,40,1.0,1.0,93,0.00,,,0.18,Wunderground v.1.15,2013-04-10 15:35:00,
2013-04-10 11:45:00,53.3,50.4,29.92,East,89,0.0,10.0,90,0.00,,,0.18,Wunderground v.1.15,2013-04-10 15:45:00,
2013-04-10 11:50:00,53.7,50.5,29.92,East,88,1.0,10.0,89,0.00,,,0.18,Wunderground v.1.15,2013-04-10 15:50:00,
2013-04-10 12:00:00,54.1,50.3,29.91,East,89,1.0,10.0,87,0.00,,,0.18,Wunderground v.1.15,2013-04-10 16:00:00,
2013-04-10 12:10:00,54.4,50.3,29.91,West,271,0.0,10.0,86,0.00,,,0.18,Wunderground v.1.15,2013-04-10 16:10:00,
2013-04-10 12:20:00,54.4,50.0,29.92,West,271,0.0,10.0,85,0.00,,,0.18,Wunderground v.1.15,2013-04-10 16:20:00,
2013-04-10 12:25:00,54.5,49.8,29.92,West,271,0.0,10.0,84,0.00,,,0.18,Wunderground v.1.15,2013-04-10 16:25:00,
2013-04-10 12:35:00,54.8,49.7,29.92,East,80,1.0,10.0,83,0.00,,,0.18,Wunderground v.1.15,2013-04-10 16:35:00,
2013-04-10 12:45:00,54.6,49.9,29.92,ENE,76,0.0,10.0,84,0.00,,,0.18,Wunderground v.1.15,2013-04-10 16:45:00,
2013-04-10 12:55:00,54.2,49.1,29.91,East,88,1.0,10.0,83,0.00,,,0.18,Wunderground v.1.15,2013-04-10 16:55:00,
2013-04-10 13:05:00,54.4,49.7,29.92,East,88,0.0,10.0,84,0.00,,,0.18,Wunderground v.1.15,2013-04-10 17:05:00,
2013-04-10 13:10:00,54.4,49.3,29.92,East,88,0.0,10.0,83,0.00,,,0.18,Wunderground v.1.15,2013-04-10 17:10:00,
2013-04-10 13:20:00,55.0,49.9,29.91,East,88,0.0,10.0,83,0.00,,,0.18,Wunderground v.1.15,2013-04-10 17:20:00,
2013-04-10 13:30:00,55.6,49.5,29.91,East,88,0.0,10.0,80,0.00,,,0.18,Wunderground v.1.15,2013-04-10 17:30:00,
2013-04-10 13:40:00,56.0,49.2,29.91,East,94,0.0,10.0,78,0.00,,,0.18,Wunderground v.1.15,2013-04-10 17:40:00,
2013-04-10 13:50:00,56.0,49.6,29.91,East,94,0.0,10.0,79,0.00,,,0.18,Wunderground v.1.15,2013-04-10 17:50:00,
2013-04-10 14:00:00,55.7,49.3,29.92,East,94,0.0,10.0,79,0.00,,,0.18,Wunderground v.1.15,2013-04-10 18:00:00,
2013-04-10 14:05:00,55.7,49.6,29.92,SSE,151,0.0,10.0,80,0.00,,,0.18,Wunderground v.1.15,2013-04-10 18:05:00,
2013-04-10 14:15:00,55.6,49.2,29.93,SSE,152,0.0,10.0,79,0.00,,,0.18,Wunderground v.1.15,2013-04-10 18:15:00,
2013-04-10 14:25:00,55.4,49.3,29.93,South,184,0.0,10.0,80,0.00,,,0.18,Wunderground v.1.15,2013-04-10 18:25:00,
2013-04-10 14:35:00,54.8,49.4,29.91,WSW,244,0.0,10.0,82,0.00,,,0.18,Wunderground v.1.15,2013-04-10 18:35:00,
2013-04-10 14:40:00,54.6,49.2,29.91,WSW,244,0.0,10.0,82,0.00,,,0.18,Wunderground v.1.15,2013-04-10 18:40:00,
2013-04-10 14:50:00,54.4,49.3,29.92,WSW,245,0.0,10.0,83,0.00,,,0.18,Wunderground v.1.15,2013-04-10 18:50:00,
2013-04-10 15:00:00,54.2,49.5,29.93,WSW,248,0.0,10.0,84,0.00,,,0.18,Wunderground v.1.15,2013-04-10 19:00:00,
2013-04-10 15:05:00,54.2,49.5,29.92,WSW,248,0.0,10.0,84,0.00,,,0.18,Wunderground v.1.15,2013-04-10 19:05:00,
2013-04-10 15:15:00,54.3,50.2,29.89,WSW,248,0.0,10.0,86,0.00,,,0.18,Wunderground v.1.15,2013-04-10 19:15:00,
2013-04-10 15:25:00,54.5,50.4,29.87,WSW,248,0.0,10.0,86,0.00,,,0.18,Wunderground v.1.15,2013-04-10 19:25:00,
2013-04-10 15:35:00,55.1,51.0,29.83,WSW,248,0.0,10.0,86,0.00,,,0.18,Wunderground v.1.15,2013-04-10 19:35:00,
2013-04-10 15:45:00,56.0,50.9,29.83,East,82,1.0,10.0,83,0.00,,,0.18,Wunderground v.1.15,2013-04-10 19:45:00,
2013-04-10 15:55:00,56.0,49.2,29.85,West,278,1.0,10.0,78,0.00,,,0.18,Wunderground v.1.15,2013-04-10 19:55:00,
2013-04-10 16:05:00,56.3,49.9,29.86,West,278,0.0,10.0,79,0.00,,,0.18,Wunderground v.1.15,2013-04-10 20:05:00,
2013-04-10 16:10:00,56.6,49.8,29.86,West,278,0.0,10.0,78,0.00,,,0.18,Wunderground v.1.15,2013-04-10 20:10:00,
2013-04-10 16:20:00,56.9,50.1,29.86,WNW,301,0.0,10.0,78,0.00,,,0.18,Wunderground v.1.15,2013-04-10 20:20:00,
2013-04-10 16:30:00,56.8,50.0,29.86,NW,308,0.0,10.0,78,0.00,,,0.18,Wunderground v.1.15,2013-04-10 20:30:00,
2013-04-10 16:40:00,56.7,49.9,29.87,NW,315,0.0,10.0,78,0.00,,,0.18,Wunderground v.1.15,2013-04-10 20:40:00,
2013-04-10 16:50:00,56.6,49.8,29.86,NW,315,0.0,10.0,78,0.00,,,0.18,Wunderground v.1.15,2013-04-10 20:50:00,
2013-04-10 17:00:00,56.5,49.7,29.87,NW,315,0.0,10.0,78,0.00,,,0.18,Wunderground v.1.15,2013-04-10 21:00:00,
2013-04-10 17:10:00,56.4,49.6,29.86,NW,315,0.0,10.0,78,0.00,,,0.18,Wunderground v.1.15,2013-04-10 21:10:00,
2013-04-10 17:20:00,56.4,50.0,29.86,NW,315,0.0,10.0,79,0.00,,,0.18,Wunderground v.1.15,2013-04-10 21:20:00,
2013-04-10 17:30:00,56.3,49.5,29.85,NW,315,0.0,10.0,78,0.00,,,0.18,Wunderground v.1.15,2013-04-10 21:30:00,
2013-04-10 17:35:00,56.3,49.5,29.85,NW,315,0.0,10.0,78,0.00,,,0.18,Wunderground v.1.15,2013-04-10 21:35:00,
2013-04-10 17:45:00,56.3,49.9,29.85,NW,315,0.0,10.0,79,0.00,,,0.18,Wunderground v.1.15,2013-04-10 21:45:00,
2013-04-10 17:50:00,56.3,50.2,29.85,NW,315,0.0,10.0,80,0.00,,,0.18,Wunderground v.1.15,2013-04-10 21:50:00,
2013-04-10 18:00:00,56.3,50.5,29.84,NW,315,0.0,10.0,81,0.00,,,0.18,Wunderground v.1.15,2013-04-10 22:00:00,
2013-04-10 18:10:00,56.1,50.3,29.84,NW,315,0.0,10.0,81,0.00,,,0.18,Wunderground v.1.15,2013-04-10 22:10:00,
2013-04-10 18:20:00,55.8,50.4,29.84,NW,315,0.0,10.0,82,0.00,,,0.18,Wunderground v.1.15,2013-04-10 22:20:00,
2013-04-10 18:30:00,55.6,50.2,29.84,NW,313,0.0,10.0,82,0.00,,,0.19,Wunderground v.1.15,2013-04-10 22:30:00,
2013-04-10 18:35:00,55.5,50.1,29.83,NW,313,0.0,10.0,82,0.00,,,0.19,Wunderground v.1.15,2013-04-10 22:35:00,
2013-04-10 18:45:00,55.1,50.0,29.82,NW,313,0.0,10.0,83,0.00,,,0.19,Wunderground v.1.15,2013-04-10 22:45:00,
2013-04-10 18:55:00,54.6,50.2,29.83,NW,313,0.0,10.0,85,0.00,,,0.19,Wunderground v.1.15,2013-04-10 22:55:00,
2013-04-10 19:00:00,54.4,50.0,29.83,NW,313,0.0,10.0,85,0.00,,,0.19,Wunderground v.1.15,2013-04-10 23:00:00,
2013-04-10 19:10:00,53.9,50.1,29.84,NW,313,0.0,10.0,87,0.00,,,0.19,Wunderground v.1.15,2013-04-10 23:10:00,
2013-04-10 19:20:00,53.5,50.3,29.84,NW,313,0.0,10.0,89,0.00,,,0.20,Wunderground v.1.15,2013-04-10 23:20:00,
2013-04-10 19:30:00,53.1,50.5,29.84,NW,313,0.0,10.0,91,0.34,,,0.23,Wunderground v.1.15,2013-04-10 23:30:00,
2013-04-10 19:40:00,52.7,50.4,29.83,NW,313,0.0,10.0,92,0.57,,,0.29,Wunderground v.1.15,2013-04-10 23:40:00,
2013-04-10 19:45:00,52.4,50.4,29.84,NW,313,0.0,10.0,93,0.29,,,0.31,Wunderground v.1.15,2013-04-10 23:45:00,
2013-04-10 19:50:00,52.2,50.5,29.85,NW,313,0.0,10.0,94,0.23,,,0.33,Wunderground v.1.15,2013-04-10 23:50:00,
2013-04-10 20:00:00,51.9,50.2,29.86,NW,313,0.0,10.0,94,0.17,,,0.35,Wunderground v.1.15,2013-04-11 00:00:00,
2013-04-10 20:10:00,51.8,50.4,29.85,NW,313,0.0,10.0,95,0.33,,,0.39,Wunderground v.1.15,2013-04-11 00:10:00,
2013-04-10 20:20:00,51.6,50.2,29.85,NW,317,0.0,10.0,95,0.28,,,0.43,Wunderground v.1.15,2013-04-11 00:20:00,
2013-04-10 20:30:00,51.5,50.4,29.86,NW,317,0.0,10.0,96,0.13,,,0.45,Wunderground v.1.15,2013-04-11 00:30:00,
2013-04-10 20:35:00,51.2,49.8,29.87,NW,317,0.0,10.0,95,0.22,,,0.47,Wunderground v.1.15,2013-04-11 00:35:00,
2013-04-10 20:45:00,50.8,49.7,29.87,NW,317,0.0,10.0,96,0.17,,,0.50,Wunderground v.1.15,2013-04-11 00:45:00,
2013-04-10 20:50:00,50.5,49.1,29.87,NW,317,0.0,10.0,95,0.15,,,0.52,Wunderground v.1.15,2013-04-11 00:50:00,
2013-04-10 21:00:00,50.1,49.0,29.88,NW,319,0.0,10.0,96,0.11,,,0.54,Wunderground v.1.15,2013-04-11 01:00:00,
2013-04-10 21:10:00,49.7,48.6,29.88,NW,326,0.0,10.0,96,0.08,,,0.55,Wunderground v.1.15,2013-04-11 01:10:00,
2013-04-10 21:15:00,49.4,48.3,29.89,NNW,331,0.0,10.0,96,0.05,,,0.55,Wunderground v.1.15,2013-04-11 01:15:00,
2013-04-10 21:25:00,48.9,47.8,29.87,NE,45,0.0,10.0,96,0.00,,,0.56,Wunderground v.1.15,2013-04-11 01:25:00,
2013-04-10 21:35:00,48.6,47.5,29.86,NE,43,0.0,10.0,96,0.10,,,0.57,Wunderground v.1.15,2013-04-11 01:35:00,
2013-04-10 21:40:00,48.5,47.4,29.86,NE,43,0.0,10.0,96,0.05,,,0.57,Wunderground v.1.15,2013-04-11 01:40:00,
2013-04-10 21:50:00,48.5,47.4,29.86,NE,49,0.0,10.0,96,0.00,,,0.57,Wunderground v.1.15,2013-04-11 01:50:00,
2013-04-10 22:00:00,48.5,47.4,29.86,East,87,0.0,10.0,96,0.00,,,0.57,Wunderground v.1.15,2013-04-11 02:00:00,
2013-04-10 22:10:00,48.3,47.5,29.86,East,88,0.0,10.0,97,0.00,,,0.57,Wunderground v.1.15,2013-04-11 02:10:00,
2013-04-10 22:20:00,48.3,47.5,29.86,East,88,0.0,10.0,97,0.00,,,0.57,Wunderground v.1.15,2013-04-11 02:20:00,
2013-04-10 22:30:00,48.1,47.3,29.86,East,87,0.0,10.0,97,0.06,,,0.58,Wunderground v.1.15,2013-04-11 02:30:00,
2013-04-10 22:35:00,48.1,47.3,29.85,East,87,0.0,10.0,97,0.06,,,0.59,Wunderground v.1.15,2013-04-11 02:35:00,
2013-04-10 23:25:00,47.2,46.4,29.87,NNE,27,0.0,10.0,97,0.12,,,0.67,Wunderground v.1.15,2013-04-11 03:25:00,
2013-04-10 23:35:00,47.1,46.3,29.87,East,88,0.0,10.0,97,0.07,,,0.68,Wunderground v.1.15,2013-04-11 03:35:00,
2013-04-10 23:45:00,47.1,46.3,29.86,NE,56,0.0,10.0,97,0.06,,,0.69,Wunderground v.1.15,2013-04-11 03:45:00,
2013-04-10 23:50:00,47.1,46.3,29.86,ENE,70,0.0,10.0,97,0.06,,,0.70,Wunderground v.1.15,2013-04-11 03:50:00,